Time;durP1;ratioP1;P1;durP2;ratioP2;P2;SDS_P1;SDS_P2;PMS_P1;PMS_P2;Temp;Humidity;BMP_temperature;BMP_pressure;BME280_temperature;BME280_humidity;BME280_pressure;Samples;Min_cycle;Max_cycle;Signal;HPM_P1;HPM_P2
2022/04/13 00:09:27;;;;;;;0.95;0.32;;;11.50;63.80;;;;;;20644442;28;20636;-83
2022/04/13 00:19:27;;;;;;;0.35;0.30;;;11.40;63.70;;;;;;20628513;28;20472;-81
2022/04/13 00:29:30;;;;;;;0.75;0.40;;;11.40;63.70;;;;;;20660449;28;20057;-81
2022/04/13 00:39:30;;;;;;;1.08;0.57;;;11.40;63.70;;;;;;20659350;28;20057;-81
2022/04/13 00:49:31;;;;;;;0.63;0.40;;;11.40;63.70;;;;;;20658452;28;20030;-81
2022/04/13 00:59:31;;;;;;;0.63;0.30;;;11.40;63.70;;;;;;20657601;28;20072;-80
2022/04/13 01:09:32;;;;;;;0.77;0.40;;;11.40;63.70;;;;;;20625037;28;20304;-80
2022/04/13 01:19:33;;;;;;;0.73;0.30;;;11.40;63.70;;;;;;20655858;28;20065;-80
2022/04/13 01:29:33;;;;;;;0.32;0.28;;;11.40;63.70;;;;;;20639287;28;20030;-82
2022/04/13 01:39:34;;;;;;;1.30;0.93;;;11.50;63.80;;;;;;20654583;28;20042;-81
2022/04/13 01:49:37;;;;;;;0.80;0.40;;;11.40;63.70;;;;;;20637904;28;20030;-81
2022/04/13 01:59:38;;;;;;;1.40;0.50;;;11.40;63.70;;;;;;20652639;28;20076;-84
2022/04/13 02:09:38;;;;;;;0.82;0.40;;;11.40;63.70;;;;;;20635180;28;20062;-82
2022/04/13 02:19:39;;;;;;;0.77;0.50;;;11.40;63.70;;;;;;20652098;28;20540;-81
2022/04/13 02:29:40;;;;;;;0.80;0.55;;;11.40;63.80;;;;;;21050751;23;20073;-81
2022/04/13 02:39:40;;;;;;;0.35;0.30;;;11.40;63.70;;;;;;20715322;28;20460;-82
2022/04/13 02:49:43;;;;;;;0.85;0.52;;;11.40;63.70;;;;;;20713645;28;20108;-80
2022/04/13 02:59:46;;;;;;;3.30;0.70;;;11.40;63.70;;;;;;20715334;28;20034;-81
2022/04/13 03:09:46;;;;;;;1.35;0.75;;;11.40;63.70;;;;;;20714605;28;20396;-82
2022/04/13 03:19:47;;;;;;;1.23;0.50;;;11.40;63.70;;;;;;20711621;28;20034;-81
2022/04/13 03:29:47;;;;;;;1.27;0.57;;;11.40;63.70;;;;;;20713166;28;20085;-81
2022/04/13 03:39:48;;;;;;;0.77;0.55;;;11.40;63.70;;;;;;20728586;28;20042;-81
2022/04/13 03:49:48;;;;;;;1.38;0.50;;;11.40;63.70;;;;;;20742643;28;20042;-81
2022/04/13 03:59:50;;;;;;;0.57;0.40;;;11.40;63.70;;;;;;20710691;28;20058;-79
2022/04/13 04:09:51;;;;;;;0.90;0.68;;;11.40;63.70;;;;;;20709672;28;20038;-82
2022/04/13 04:19:51;;;;;;;1.35;0.80;;;11.40;63.70;;;;;;20716040;28;20026;-80
2022/04/13 04:29:52;;;;;;;1.23;0.70;;;11.40;63.70;;;;;;20722070;28;20589;-83
2022/04/13 04:39:53;;;;;;;2.17;1.10;;;11.40;63.70;;;;;;20723137;28;20488;-87
2022/04/13 04:49:53;;;;;;;2.28;0.77;;;11.40;63.70;;;;;;20724110;28;20084;-85
2022/04/13 04:59:54;;;;;;;1.88;0.93;;;11.30;63.70;;;;;;20738770;28;20125;-87
2022/04/13 05:09:54;;;;;;;1.63;1.10;;;11.30;63.60;;;;;;20738799;28;20109;-85
2022/04/13 05:19:55;;;;;;;1.77;1.15;;;11.30;63.60;;;;;;20736959;28;20057;-86
2022/04/13 05:29:55;;;;;;;1.90;1.15;;;11.40;63.60;;;;;;20720303;28;20041;-86
2022/04/13 05:39:56;;;;;;;1.85;1.00;;;11.40;63.60;;;;;;20703681;28;20033;-85
2022/04/13 05:49:56;;;;;;;1.67;0.65;;;11.30;63.50;;;;;;20702717;28;20092;-86
2022/04/13 05:59:57;;;;;;;2.08;1.00;;;11.30;63.50;;;;;;20718066;28;20488;-86
2022/04/13 06:10:01;;;;;;;2.25;1.17;;;11.30;63.60;;;;;;20734177;28;20088;-86
2022/04/13 06:20:03;;;;;;;0.63;0.55;;;11.30;63.60;;;;;;20732272;28;20045;-87
2022/04/13 06:30:04;;;;;;;1.67;0.77;;;11.40;63.70;;;;;;20716871;28;20081;-86
2022/04/13 06:40:05;;;;;;;1.27;0.65;;;11.40;63.70;;;;;;20714698;28;20065;-85
2022/04/13 06:50:06;;;;;;;0.98;0.70;;;11.40;63.70;;;;;;20715169;28;20403;-86
2022/04/13 07:00:08;;;;;;;1.17;0.70;;;11.40;63.70;;;;;;20755450;28;20069;-87
2022/04/13 07:10:08;;;;;;;1.50;0.55;;;11.40;63.70;;;;;;20730750;28;20046;-87
2022/04/13 07:20:12;;;;;;;1.65;0.57;;;11.40;63.70;;;;;;20746671;28;20089;-86
2022/04/13 07:30:13;;;;;;;0.73;0.43;;;11.40;63.80;;;;;;20713086;28;20100;-85
2022/04/13 07:40:14;;;;;;;0.50;0.40;;;11.40;63.70;;;;;;20728137;28;20042;-85
2022/04/13 07:50:15;;;;;;;0.65;0.40;;;11.50;63.80;;;;;;20728795;28;20088;-84
2022/04/13 08:00:15;;;;;;;0.82;0.50;;;11.50;63.80;;;;;;20711153;28;20492;-85
2022/04/13 08:10:16;;;;;;;0.68;0.50;;;11.50;63.80;;;;;;20709815;28;20041;-83
2022/04/13 08:20:17;;;;;;;3.83;0.70;;;11.50;63.70;;;;;;20725235;28;20034;-85
2022/04/13 08:30:18;;;;;;;1.25;0.70;;;11.50;63.70;;;;;;20726032;28;20048;-84
2022/04/13 08:40:20;;;;;;;0.57;0.57;;;11.60;63.70;;;;;;20707587;28;20034;-84
2022/04/13 08:50:21;;;;;;;0.70;0.50;;;11.60;63.70;;;;;;20707652;28;20033;-85
2022/04/13 09:00:21;;;;;;;0.82;0.45;;;11.60;63.70;;;;;;20706935;28;20117;-85
2022/04/13 09:10:23;;;;;;;0.40;0.40;;;11.60;63.60;;;;;;20705139;28;20040;-85
2022/04/13 09:20:23;;;;;;;1.02;0.50;;;11.60;63.60;;;;;;20719993;28;20381;-84
2022/04/13 09:30:24;;;;;;;1.00;0.47;;;11.60;63.60;;;;;;20703253;28;20037;-84
2022/04/13 09:40:40;;;;;;;1.95;0.50;;;11.70;63.60;;;;;;20719295;28;20041;-84
2022/04/13 09:50:42;;;;;;;0.85;0.50;;;11.70;63.60;;;;;;20718825;28;20408;-84
2022/04/13 10:00:43;;;;;;;0.55;0.55;;;11.70;63.60;;;;;;20702016;28;20542;-84
2022/04/13 10:10:45;;;;;;;1.13;0.60;;;11.70;63.50;;;;;;20701259;28;20456;-81
2022/04/13 10:20:46;;;;;;;0.50;0.35;;;11.80;63.60;;;;;;20716128;28;20427;-81
2022/04/13 10:30:48;;;;;;;1.73;0.52;;;11.90;63.60;;;;;;20715673;28;20080;-83
2022/04/13 10:40:48;;;;;;;0.82;0.40;;;11.80;63.50;;;;;;20714377;28;20180;-83
2022/04/13 10:50:55;;;;;;;1.73;0.47;;;11.90;63.60;;;;;;20697845;28;20076;-82
2022/04/13 11:01:01;;;;;;;0.50;0.43;;;11.90;63.50;;;;;;20714857;28;20387;-81
2022/04/13 11:11:01;;;;;;;0.35;0.35;;;11.90;63.50;;;;;;20713488;28;20038;-81
2022/04/13 11:21:02;;;;;;;0.63;0.35;;;11.90;63.50;;;;;;20713319;28;20058;-82
2022/04/13 11:31:04;;;;;;;1.08;0.70;;;11.90;63.40;;;;;;20730519;28;20466;-82
2022/04/13 11:41:08;;;;;;;0.70;0.57;;;11.90;63.40;;;;;;20712987;28;20034;-81
2022/04/13 11:51:30;;;;;;;2.20;0.47;;;12.00;63.40;;;;;;20711103;28;20033;-82
2022/04/13 12:01:33;;;;;;;0.40;0.38;;;12.00;63.40;;;;;;20711852;28;20065;-83
2022/04/13 12:11:41;;;;;;;1.17;0.43;;;12.00;63.30;;;;;;20711363;28;20152;-82
2022/04/13 12:21:42;;;;;;;1.27;0.55;;;12.10;63.40;;;;;;20725167;28;20034;-82
2022/04/13 12:31:55;;;;;;;0.55;0.30;;;12.10;63.40;;;;;;20724220;28;20456;-82
2022/04/13 12:41:56;;;;;;;0.43;0.40;;;12.10;63.30;;;;;;20739688;28;20038;-81
2022/04/13 12:51:57;;;;;;;1.40;0.35;;;12.20;63.40;;;;;;20707624;28;20038;-83
2022/04/13 13:01:58;;;;;;;0.82;0.50;;;12.20;63.40;;;;;;20721235;28;20386;-83
2022/04/13 13:12:00;;;;;;;0.68;0.32;;;12.20;63.40;;;;;;20721790;28;20034;-82
2022/04/13 13:22:16;;;;;;;1.17;0.43;;;12.30;63.30;;;;;;20736895;28;20053;-83
2022/04/13 13:32:18;;;;;;;0.83;0.53;;;12.30;63.30;;;;;;20720180;28;20096;-82
2022/04/13 13:42:19;;;;;;;0.75;0.60;;;12.30;63.30;;;;;;20736325;28;20030;-83
2022/04/13 13:52:19;;;;;;;0.25;0.25;;;12.40;63.30;;;;;;20703225;28;20080;-82
2022/04/13 14:02:21;;;;;;;0.65;0.40;;;12.40;63.30;;;;;;20701863;28;20061;-82
2022/04/13 14:12:22;;;;;;;1.10;0.60;;;12.40;63.30;;;;;;20716056;28;20030;-82
2022/04/13 14:22:22;;;;;;;3.03;1.08;;;12.40;63.30;;;;;;20698259;28;20133;-83
2022/04/13 14:32:26;;;;;;;1.02;0.60;;;12.50;63.30;;;;;;20700633;28;20044;-82
2022/04/13 14:42:27;;;;;;;0.88;0.60;;;12.60;63.30;;;;;;20700160;28;20069;-83
2022/04/13 14:52:28;;;;;;;0.70;0.50;;;12.60;63.30;;;;;;20714943;28;20033;-83
2022/04/13 15:02:28;;;;;;;0.85;0.73;;;12.60;63.20;;;;;;20699465;28;20135;-83
2022/04/13 15:12:30;;;;;;;0.65;0.47;;;12.60;63.20;;;;;;20714831;28;20100;-82
2022/04/13 15:22:31;;;;;;;0.68;0.50;;;12.60;63.20;;;;;;20718601;28;20662;-82
2022/04/13 15:32:31;;;;;;;1.83;0.80;;;12.70;63.30;;;;;;20710724;28;20040;-83
2022/04/13 15:42:32;;;;;;;2.33;0.98;;;12.80;63.20;;;;;;20727028;28;20033;-83
2022/04/13 15:52:32;;;;;;;1.92;1.05;;;12.90;63.10;;;;;;20730939;28;20118;-84
2022/04/13 16:02:33;;;;;;;0.70;0.40;;;13.00;63.20;;;;;;20726034;28;20029;-83
2022/04/13 16:12:34;;;;;;;1.13;0.95;;;13.00;63.20;;;;;;20723614;28;20424;-79
2022/04/13 16:22:34;;;;;;;6.63;2.80;;;13.00;63.10;;;;;;20710093;28;20041;-80
2022/04/13 16:32:35;;;;;;;6.13;1.73;;;13.40;63.50;;;;;;20707028;28;20073;-80
2022/04/13 16:42:35;;;;;;;6.53;2.55;;;13.40;64.00;;;;;;20677118;28;20034;-75
2022/04/13 16:52:37;;;;;;;4.13;1.40;;;13.40;64.20;;;;;;20620138;28;20487;-79
2022/04/13 17:02:37;;;;;;;2.53;1.00;;;13.40;64.40;;;;;;20670336;28;20034;-78
2022/04/13 17:12:38;;;;;;;2.25;0.90;;;13.30;64.30;;;;;;20638193;28;20472;-74
2022/04/13 17:22:40;;;;;;;3.92;1.55;;;13.30;64.50;;;;;;20650104;28;20480;-74
2022/04/13 17:32:40;;;;;;;1.63;0.70;;;13.30;64.80;;;;;;20657641;28;20542;-78
2022/04/13 17:42:41;;;;;;;4.93;2.00;;;13.30;65.40;;;;;;20676630;28;20038;-74
2022/04/13 17:52:42;;;;;;;3.17;1.50;;;13.30;65.80;;;;;;20726777;28;20026;-71
2022/04/13 18:02:42;;;;;;;1.90;1.08;;;13.20;66.00;;;;;;20710038;28;20042;-71
2022/04/13 18:12:43;;;;;;;2.67;0.93;;;13.20;66.00;;;;;;20720174;28;20061;-71
2022/04/13 18:22:47;;;;;;;1.23;0.52;;;13.10;66.00;;;;;;20646616;28;20037;-71
2022/04/13 18:32:47;;;;;;;1.15;0.80;;;13.10;65.90;;;;;;20696085;28;20134;-72
2022/04/13 18:42:48;;;;;;;1.20;0.93;;;13.10;66.00;;;;;;20706422;28;20685;-72
2022/04/13 18:52:49;;;;;;;1.17;0.75;;;13.10;66.00;;;;;;20706027;28;20281;-72
2022/04/13 19:02:49;;;;;;;0.80;0.50;;;13.00;65.90;;;;;;20674245;28;20471;-72
2022/04/13 19:12:50;;;;;;;2.45;1.05;;;13.00;65.80;;;;;;20690998;28;20479;-73
2022/04/13 19:22:51;;;;;;;1.27;0.68;;;13.00;65.90;;;;;;20673474;28;20111;-72
2022/04/13 19:32:51;;;;;;;1.33;0.60;;;13.00;65.90;;;;;;20674208;28;20033;-72
2022/04/13 19:42:52;;;;;;;1.50;0.77;;;13.00;66.00;;;;;;20688838;28;20073;-72
2022/04/13 19:52:53;;;;;;;2.50;1.40;;;13.00;66.10;;;;;;20670997;28;20033;-71
2022/04/13 20:02:53;;;;;;;2.00;0.60;;;13.00;66.10;;;;;;20672910;28;20396;-72
2022/04/13 20:12:54;;;;;;;0.55;0.55;;;13.00;66.20;;;;;;20702222;28;20296;-72
2022/04/13 20:22:54;;;;;;;1.23;0.77;;;13.00;66.20;;;;;;20685617;28;20069;-71
2022/04/13 20:32:56;;;;;;;1.05;0.63;;;13.00;66.20;;;;;;20699583;28;20041;-71
2022/04/13 20:42:57;;;;;;;1.65;0.88;;;13.00;66.30;;;;;;20715671;28;20052;-72
2022/04/13 20:52:57;;;;;;;1.30;0.70;;;13.00;66.30;;;;;;20699724;28;20116;-72
2022/04/13 21:02:59;;;;;;;1.25;0.60;;;13.00;66.30;;;;;;20681447;28;20304;-72
2022/04/13 21:12:59;;;;;;;1.55;1.05;;;13.00;66.40;;;;;;20697602;28;20038;-71
2022/04/13 21:23:00;;;;;;;1.37;1.00;;;13.00;66.40;;;;;;20695371;28;20045;-72
2022/04/13 21:33:00;;;;;;;1.08;0.70;;;13.00;66.50;;;;;;20712084;28;20651;-73
2022/04/13 21:43:01;;;;;;;1.75;1.10;;;13.00;66.60;;;;;;20678408;28;20312;-71
2022/04/13 21:53:02;;;;;;;2.97;1.10;;;13.10;66.70;;;;;;20678306;28;20034;-72
2022/04/13 22:03:06;;;;;;;2.45;1.27;;;13.00;66.80;;;;;;20693154;28;20038;-72
2022/04/13 22:13:06;;;;;;;3.35;1.25;;;13.10;66.90;;;;;;20676190;28;20037;-72
2022/04/13 22:23:10;;;;;;;5.47;1.55;;;13.10;67.10;;;;;;20675704;28;20377;-71
2022/04/13 22:33:11;;;;;;;4.63;1.75;;;13.10;67.30;;;;;;20690715;28;20041;-72
2022/04/13 22:43:11;;;;;;;5.40;2.05;;;13.10;67.60;;;;;;20674693;28;20044;-72
2022/04/13 22:53:12;;;;;;;4.95;2.25;;;13.10;67.80;;;;;;20674410;28;20030;-72
2022/04/13 23:03:13;;;;;;;3.63;1.92;;;13.10;68.10;;;;;;20689408;28;20125;-73
2022/04/13 23:13:14;;;;;;;4.60;2.47;;;13.20;68.50;;;;;;20672997;28;20124;-72
2022/04/13 23:23:15;;;;;;;3.08;1.70;;;13.20;68.80;;;;;;20705079;28;20446;-72
2022/04/13 23:33:15;;;;;;;3.08;1.40;;;13.20;69.30;;;;;;20673113;28;20042;-72
2022/04/13 23:43:16;;;;;;;4.20;1.77;;;13.10;69.50;;;;;;20681545;28;20039;-72
2022/04/13 23:53:17;;;;;;;3.60;1.50;;;13.10;69.50;;;;;;20688104;28;20112;-72
